createdAt,value
2018-06-01T00:00:42.787Z,3.63
2018-06-01T00:03:11.491Z,4.47
2018-06-01T00:05:40.094Z,4.10
2018-06-01T00:08:08.657Z,4.70
2018-06-01T00:10:37.236Z,4.30
2018-06-01T00:13:05.788Z,4.70
2018-06-01T00:15:34.346Z,4.47
2018-06-01T00:18:02.892Z,3.80
2018-06-01T00:20:31.472Z,4.13
2018-06-01T00:23:00.031Z,4.30
2018-06-01T00:25:28.589Z,5.10
2018-06-01T00:27:57.159Z,4.17
2018-06-01T00:30:25.746Z,3.90
2018-06-01T00:32:54.296Z,3.67
2018-06-01T00:35:22.840Z,3.50
2018-06-01T00:37:51.387Z,3.83
2018-06-01T00:40:19.979Z,3.67
2018-06-01T00:42:48.523Z,4.30
2018-06-01T00:45:17.114Z,4.00
2018-06-01T00:47:45.697Z,3.90
2018-06-01T00:50:14.261Z,3.53
2018-06-01T00:52:42.815Z,3.90
2018-06-01T00:55:22.376Z,3.47
2018-06-01T00:57:50.965Z,3.50
2018-06-01T01:00:19.555Z,3.20
2018-06-01T01:02:48.144Z,3.43
2018-06-01T01:05:16.737Z,3.17
2018-06-01T01:07:45.321Z,3.00
2018-06-01T01:10:13.943Z,3.20
2018-06-01T01:12:42.548Z,3.00
2018-06-01T01:15:11.120Z,3.03
2018-06-01T01:17:39.665Z,3.70
2018-06-01T01:20:08.220Z,3.57
2018-06-01T01:22:36.767Z,3.40
2018-06-01T01:25:05.324Z,4.27
2018-06-01T01:27:33.911Z,3.50
2018-06-01T01:30:05.714Z,3.53
2018-06-01T01:32:34.303Z,3.83
2018-06-01T01:35:02.863Z,3.17
2018-06-01T01:37:31.629Z,3.30
2018-06-01T01:39:59.563Z,3.53
2018-06-01T01:42:28.117Z,3.63
2018-06-01T01:44:56.676Z,3.30
2018-06-01T01:47:25.247Z,3.70
2018-06-01T01:49:54.849Z,3.30
2018-06-01T01:52:23.429Z,3.40
2018-06-01T01:54:51.983Z,3.30
2018-06-01T01:57:20.539Z,3.13
2018-06-01T01:59:49.093Z,3.27
2018-06-01T02:02:17.650Z,3.63
2018-06-01T02:04:46.203Z,3.10
2018-06-01T02:07:14.746Z,2.80
2018-06-01T02:09:43.301Z,3.30
2018-06-01T02:12:11.855Z,3.00
2018-06-01T02:14:40.403Z,3.30
2018-06-01T02:17:08.948Z,3.03
2018-06-01T02:19:37.512Z,16.77
2018-06-01T02:22:06.075Z,18.43
2018-06-01T02:24:34.661Z,16.97
2018-06-01T02:27:03.235Z,15.07
2018-06-01T02:29:31.808Z,12.63
2018-06-01T02:32:00.370Z,9.73
2018-06-01T02:34:29.013Z,7.60
2018-06-01T02:36:57.616Z,5.33
2018-06-01T02:39:26.174Z,6.97
2018-06-01T02:41:54.754Z,5.73
2018-06-01T02:44:23.311Z,5.97
2018-06-01T02:46:51.899Z,4.63
2018-06-01T02:49:20.451Z,3.57
2018-06-01T02:51:48.999Z,4.23
2018-06-01T02:54:17.547Z,3.57
2018-06-01T02:56:46.156Z,3.67
2018-06-01T02:59:14.713Z,3.17
2018-06-01T03:01:43.280Z,4.37
2018-06-01T03:04:11.842Z,3.90
2018-06-01T03:06:51.287Z,3.50
2018-06-01T03:09:19.880Z,4.83
2018-06-01T03:11:48.453Z,4.20
2018-06-01T03:14:17.049Z,4.90
2018-06-01T03:16:45.646Z,4.67
2018-06-01T03:19:14.238Z,3.70
2018-06-01T03:21:42.793Z,3.70
2018-06-01T03:24:11.479Z,3.33
2018-06-01T03:26:40.028Z,3.60
2018-06-01T03:29:08.588Z,3.73
2018-06-01T03:31:37.141Z,3.93
2018-06-01T03:34:05.360Z,3.97
2018-06-01T03:36:33.914Z,3.97
2018-06-01T03:39:02.135Z,4.63
2018-06-01T03:41:30.683Z,4.10
2018-06-01T03:43:59.232Z,3.97
2018-06-01T03:46:27.798Z,4.00
2018-06-01T03:48:56.401Z,4.10
2018-06-01T03:51:24.952Z,3.83
2018-06-01T03:53:53.529Z,3.80
2018-06-01T03:56:22.118Z,3.60
2018-06-01T03:58:50.683Z,3.80
2018-06-01T04:01:19.246Z,3.50
2018-06-01T04:03:47.806Z,3.87
2018-06-01T04:06:16.375Z,3.60
2018-06-01T04:08:44.955Z,4.13
2018-06-01T04:11:13.517Z,4.10
2018-06-01T04:13:42.062Z,4.00
2018-06-01T04:16:10.685Z,4.60
2018-06-01T04:18:39.239Z,4.83
2018-06-01T04:21:07.795Z,4.40
2018-06-01T04:23:36.387Z,4.97
2018-06-01T04:26:04.944Z,5.00
2018-06-01T04:28:33.552Z,5.30
2018-06-01T04:31:02.098Z,5.43
2018-06-01T04:33:30.651Z,5.17
2018-06-01T04:35:59.198Z,5.17
2018-06-01T04:38:28.594Z,5.30
2018-06-01T04:40:57.139Z,4.90
2018-06-01T04:43:25.719Z,4.60
2018-06-01T04:45:54.304Z,4.30
2018-06-01T04:48:22.917Z,5.57
2018-06-01T04:50:51.467Z,6.23
2018-06-01T04:53:20.026Z,5.37
2018-06-01T04:55:48.588Z,5.40
2018-06-01T04:58:17.147Z,4.20
2018-06-01T05:00:45.708Z,4.63
2018-06-01T05:03:14.270Z,4.57
2018-06-01T05:05:42.881Z,5.13
2018-06-01T05:08:11.438Z,5.03
2018-06-01T05:10:39.998Z,4.73
2018-06-01T05:13:08.598Z,4.33
2018-06-01T05:15:37.253Z,4.60
2018-06-01T05:18:05.836Z,4.77
2018-06-01T05:20:34.423Z,4.13
2018-06-01T05:23:03.014Z,4.67
2018-06-01T05:25:31.560Z,4.27
2018-06-01T05:28:00.121Z,4.70
2018-06-01T05:30:28.762Z,4.60
2018-06-01T05:32:57.484Z,5.00
2018-06-01T05:35:26.070Z,4.33
2018-06-01T05:37:54.812Z,4.10
2018-06-01T05:40:23.368Z,4.33
2018-06-01T05:42:51.927Z,4.33
2018-06-01T05:45:20.488Z,4.80
2018-06-01T05:47:49.043Z,5.37
2018-06-01T05:50:17.640Z,4.50
2018-06-01T05:52:46.203Z,4.27
2018-06-01T05:55:14.791Z,4.87
2018-06-01T05:57:43.352Z,5.17
2018-06-01T06:00:11.750Z,5.13
2018-06-01T06:02:40.299Z,5.70
2018-06-01T06:05:08.858Z,4.70
2018-06-01T06:07:37.407Z,5.00
2018-06-01T06:10:06.168Z,5.47
2018-06-01T06:12:34.722Z,4.73
2018-06-01T06:15:03.280Z,4.83
2018-06-01T06:17:31.889Z,5.17
2018-06-01T06:20:00.451Z,5.53
2018-06-01T06:22:29.007Z,5.20
2018-06-01T06:24:57.573Z,5.90
2018-06-01T06:27:26.130Z,5.37
2018-06-01T06:29:55.397Z,6.27
2018-06-01T06:32:24.002Z,5.83
2018-06-01T06:34:52.550Z,5.63
2018-06-01T06:37:21.123Z,6.17
2018-06-01T06:39:49.715Z,5.73
2018-06-01T06:42:18.792Z,6.00
2018-06-01T06:44:47.428Z,5.33
2018-06-01T06:47:15.981Z,4.90
2018-06-01T06:49:44.536Z,5.20
2018-06-01T06:52:13.095Z,4.13
2018-06-01T06:54:41.639Z,4.83
2018-06-01T06:57:10.231Z,4.20
2018-06-01T06:59:38.789Z,4.97
2018-06-01T07:02:07.355Z,5.93
2018-06-01T07:04:35.907Z,5.80
2018-06-01T07:07:04.472Z,6.33
2018-06-01T07:09:33.032Z,6.17
2018-06-01T07:12:01.639Z,7.23
2018-06-01T07:14:30.227Z,6.23
2018-06-01T07:16:58.781Z,5.90
2018-06-01T07:19:27.329Z,5.07
2018-06-01T07:21:55.910Z,4.83
2018-06-01T07:24:24.461Z,4.77
2018-06-01T07:26:53.035Z,4.40
2018-06-01T07:29:21.606Z,5.20
2018-06-01T07:31:50.165Z,4.60
2018-06-01T07:34:18.714Z,4.90
2018-06-01T07:36:47.283Z,5.50
2018-06-01T07:39:15.875Z,4.70
2018-06-01T07:41:44.459Z,5.30
2018-06-01T07:44:13.024Z,4.73
2018-06-01T07:46:41.616Z,5.33
2018-06-01T07:49:10.163Z,8.80
2018-06-01T07:51:38.749Z,7.63
2018-06-01T07:54:07.312Z,6.80
2018-06-01T07:56:35.883Z,5.90
2018-06-01T07:59:04.455Z,7.00
2018-06-01T08:01:33.029Z,5.43
2018-06-01T08:04:01.695Z,6.40
2018-06-01T08:06:30.255Z,5.80
2018-06-01T08:08:58.863Z,4.63
2018-06-01T08:11:27.432Z,4.33
2018-06-01T08:13:56.002Z,4.00
2018-06-01T08:16:24.564Z,4.30
2018-06-01T08:18:53.167Z,4.40
2018-06-01T08:21:21.722Z,3.90
2018-06-01T08:23:50.302Z,4.73
2018-06-01T08:26:18.855Z,4.13
2018-06-01T08:28:47.406Z,3.57
2018-06-01T08:31:15.969Z,3.80
2018-06-01T08:33:44.620Z,3.57
2018-06-01T08:36:13.211Z,3.67
2018-06-01T08:38:41.971Z,3.70
2018-06-01T08:41:10.583Z,2.93
2018-06-01T08:43:39.196Z,2.90
2018-06-01T08:46:07.742Z,2.60
2018-06-01T08:48:36.303Z,3.00
2018-06-01T08:51:04.866Z,3.30
2018-06-01T08:53:33.470Z,2.40
2018-06-01T08:56:02.039Z,3.00
2018-06-01T08:58:30.604Z,4.97
2018-06-01T09:00:59.155Z,3.17
2018-06-01T09:03:27.765Z,4.13
2018-06-01T09:05:56.333Z,3.07
2018-06-01T09:08:24.895Z,3.27
2018-06-01T09:10:53.443Z,3.27
2018-06-01T09:13:21.997Z,3.03
2018-06-01T09:15:50.588Z,2.83
2018-06-01T09:18:19.135Z,2.77
2018-06-01T09:20:47.694Z,3.17
2018-06-01T09:23:16.248Z,2.73
2018-06-01T09:25:44.866Z,3.00
2018-06-01T09:28:13.451Z,2.83
2018-06-01T09:30:42.185Z,2.93
2018-06-01T09:33:10.752Z,2.50
2018-06-01T09:35:39.323Z,3.33
2018-06-01T09:38:07.877Z,2.80
2018-06-01T09:40:36.437Z,3.20
2018-06-01T09:43:05.001Z,3.57
2018-06-01T09:45:33.561Z,2.50
2018-06-01T09:48:02.107Z,2.60
2018-06-01T09:50:30.667Z,3.90
2018-06-01T09:52:59.234Z,4.97
2018-06-01T09:55:27.878Z,4.07
2018-06-01T09:57:56.458Z,3.40
2018-06-01T10:00:30.468Z,3.60
2018-06-01T10:02:59.183Z,4.17
2018-06-01T10:05:27.744Z,2.83
2018-06-01T10:07:56.429Z,2.10
2018-06-01T10:10:31.058Z,3.07
2018-06-01T10:13:00.384Z,2.97
2018-06-01T10:15:29.731Z,2.23
2018-06-01T10:17:58.913Z,4.30
2018-06-01T10:20:27.480Z,7.23
2018-06-01T10:22:56.126Z,2.40
2018-06-01T10:25:24.709Z,2.37
2018-06-01T10:27:53.259Z,3.90
2018-06-01T10:30:21.863Z,5.80
2018-06-01T10:32:50.423Z,23.17
2018-06-01T10:35:18.990Z,8.70
2018-06-01T10:37:47.641Z,3.43
2018-06-01T10:40:16.444Z,2.60
2018-06-01T10:42:45.286Z,2.40
2018-06-01T10:45:13.957Z,2.47
2018-06-01T10:47:43.653Z,2.20
2018-06-01T10:50:12.374Z,3.17
2018-06-01T10:52:40.940Z,3.30
2018-06-01T10:55:09.527Z,13.97
2018-06-01T10:57:38.256Z,8.10
2018-06-01T11:00:06.939Z,3.23
2018-06-01T11:02:35.529Z,2.70
2018-06-01T11:05:04.096Z,3.37
2018-06-01T11:07:32.695Z,2.80
2018-06-01T11:10:01.264Z,3.20
2018-06-01T11:12:29.996Z,4.07
2018-06-01T11:14:58.546Z,3.00
2018-06-01T11:17:27.098Z,2.80
2018-06-01T11:19:55.867Z,2.70
2018-06-01T11:22:24.423Z,2.30
2018-06-01T11:24:52.970Z,2.60
2018-06-01T11:27:21.572Z,2.20
2018-06-01T11:29:50.118Z,2.40
2018-06-01T11:32:18.727Z,2.53
2018-06-01T11:34:47.282Z,2.50
2018-06-01T11:37:15.838Z,3.67
2018-06-01T11:39:44.397Z,3.30
2018-06-01T11:42:12.960Z,3.17
2018-06-01T11:44:41.524Z,2.87
2018-06-01T11:47:10.081Z,3.07
2018-06-01T11:49:38.692Z,3.70
2018-06-01T11:52:07.290Z,3.43
2018-06-01T11:54:35.858Z,3.10
2018-06-01T11:57:04.097Z,3.57
2018-06-01T11:59:32.662Z,2.77
2018-06-01T12:02:01.226Z,2.90
2018-06-01T12:04:29.788Z,2.60
2018-06-01T12:06:58.341Z,3.00
2018-06-01T12:09:26.895Z,2.77
2018-06-01T12:11:55.451Z,3.10
2018-06-01T12:14:24.003Z,2.97
2018-06-01T12:16:52.568Z,2.70
2018-06-01T12:19:21.127Z,2.47
2018-06-01T12:21:49.708Z,6.93
2018-06-01T12:24:18.275Z,3.40
2018-06-01T12:26:46.831Z,2.90
2018-06-01T12:29:15.394Z,2.80
2018-06-01T12:31:44.135Z,3.07
2018-06-01T12:34:12.696Z,2.63
2018-06-01T12:36:41.272Z,2.87
2018-06-01T12:39:09.823Z,2.60
2018-06-01T12:41:38.407Z,3.10
2018-06-01T12:44:06.960Z,2.67
2018-06-01T12:46:35.579Z,2.50
2018-06-01T12:49:04.128Z,2.70
2018-06-01T12:51:32.688Z,3.80
2018-06-01T12:54:01.262Z,3.87
2018-06-01T12:56:29.989Z,2.80
2018-06-01T12:58:58.538Z,2.73
2018-06-01T13:01:27.085Z,3.20
2018-06-01T13:03:55.632Z,2.97
2018-06-01T13:06:24.184Z,2.80
2018-06-01T13:08:52.783Z,2.80
2018-06-01T13:11:21.521Z,3.00
2018-06-01T13:13:50.058Z,2.90
2018-06-01T13:16:18.612Z,3.30
2018-06-01T13:18:47.172Z,2.63
2018-06-01T13:21:15.726Z,3.00
2018-06-01T13:23:44.273Z,3.30
2018-06-01T13:26:12.831Z,3.37
2018-06-01T13:28:41.383Z,2.93
2018-06-01T13:31:09.944Z,3.00
2018-06-01T13:33:38.498Z,3.43
2018-06-01T13:36:07.064Z,2.80
2018-06-01T13:38:35.615Z,3.27
2018-06-01T13:41:04.177Z,3.80
2018-06-01T13:43:32.749Z,3.33
2018-06-01T13:46:01.344Z,3.77
2018-06-01T13:48:29.900Z,3.50
2018-06-01T13:50:58.471Z,3.43
2018-06-01T13:53:27.031Z,3.00
2018-06-01T13:55:55.596Z,3.40
2018-06-01T13:58:24.184Z,3.77
2018-06-01T14:00:52.757Z,3.07
2018-06-01T14:03:21.314Z,3.60
2018-06-01T14:05:49.887Z,3.17
2018-06-01T14:08:18.443Z,3.40
2018-06-01T14:10:47.026Z,3.73
2018-06-01T14:13:15.584Z,3.17
2018-06-01T14:15:44.137Z,3.60
2018-06-01T14:18:12.678Z,3.43
2018-06-01T14:20:41.235Z,3.77
2018-06-01T14:23:09.778Z,3.23
2018-06-01T14:25:38.336Z,3.30
2018-06-01T14:28:06.943Z,3.23
2018-06-01T14:30:35.569Z,3.30
2018-06-01T14:33:04.129Z,3.10
2018-06-01T14:35:32.696Z,3.30
2018-06-01T14:38:02.763Z,3.17
2018-06-01T14:40:32.465Z,3.37
2018-06-01T14:43:03.286Z,3.40
2018-06-01T14:45:32.089Z,4.33
2018-06-01T14:48:00.915Z,3.20
2018-06-01T14:50:29.605Z,3.53
2018-06-01T14:52:58.331Z,3.20
2018-06-01T14:55:26.883Z,3.00
2018-06-01T14:57:55.435Z,3.50
2018-06-01T15:00:24.003Z,3.10
2018-06-01T15:02:52.550Z,3.87
2018-06-01T15:05:25.012Z,3.97
2018-06-01T15:07:53.313Z,3.43
2018-06-01T15:10:21.863Z,3.13
2018-06-01T15:12:51.322Z,3.63
2018-06-01T15:15:19.888Z,3.80
2018-06-01T15:17:48.487Z,3.53
2018-06-01T15:20:17.206Z,3.50
2018-06-01T15:22:45.806Z,3.33
2018-06-01T15:25:14.366Z,3.30
2018-06-01T15:27:42.927Z,3.40
2018-06-01T15:30:11.521Z,3.73
2018-06-01T15:32:40.126Z,3.70
2018-06-01T15:35:08.689Z,3.70
2018-06-01T15:37:37.283Z,3.73
2018-06-01T15:40:05.834Z,3.73
2018-06-01T15:42:34.443Z,3.87
2018-06-01T15:45:02.983Z,3.40
2018-06-01T15:47:31.540Z,3.57
2018-06-01T15:50:00.113Z,4.13
2018-06-01T15:52:28.664Z,3.90
2018-06-01T15:54:57.218Z,4.27
2018-06-01T15:57:25.780Z,4.03
2018-06-01T15:59:54.371Z,3.60
2018-06-01T16:02:22.926Z,3.57
2018-06-01T16:04:51.512Z,4.10
2018-06-01T16:07:20.089Z,4.43
2018-06-01T16:09:48.835Z,3.83
2018-06-01T16:12:17.430Z,3.70
2018-06-01T16:14:46.015Z,3.63
2018-06-01T16:17:14.760Z,4.27
2018-06-01T16:19:43.312Z,4.00
2018-06-01T16:22:11.867Z,3.97
2018-06-01T16:24:40.474Z,4.03
2018-06-01T16:27:09.030Z,3.47
2018-06-01T16:29:37.631Z,4.23
2018-06-01T16:32:06.200Z,4.40
2018-06-01T16:34:34.755Z,3.70
2018-06-01T16:37:03.323Z,4.00
2018-06-01T16:39:31.884Z,3.50
2018-06-01T16:42:00.451Z,4.00
2018-06-01T16:44:29.057Z,3.70
2018-06-01T16:46:57.601Z,4.00
2018-06-01T16:49:26.212Z,3.67
2018-06-01T16:51:54.762Z,4.07
2018-06-01T16:54:23.397Z,3.30
2018-06-01T16:56:52.101Z,3.80
2018-06-01T16:59:20.654Z,3.60
2018-06-01T17:01:49.238Z,4.10
2018-06-01T17:04:17.803Z,4.13
2018-06-01T17:06:46.407Z,3.97
2018-06-01T17:09:14.959Z,3.50
2018-06-01T17:11:43.556Z,3.73
2018-06-01T17:14:12.106Z,3.90
2018-06-01T17:16:40.664Z,3.80
2018-06-01T17:19:09.275Z,4.03
2018-06-01T17:21:37.831Z,4.10
2018-06-01T17:24:06.379Z,4.00
2018-06-01T17:26:34.933Z,3.80
2018-06-01T17:29:03.512Z,3.97
2018-06-01T17:31:32.077Z,4.13
2018-06-01T17:34:00.639Z,4.33
2018-06-01T17:36:29.231Z,4.27
2018-06-01T17:38:57.783Z,4.03
2018-06-01T17:41:26.348Z,4.40
2018-06-01T17:43:54.900Z,4.07
2018-06-01T17:46:23.468Z,3.83
2018-06-01T17:48:52.035Z,4.27
2018-06-01T17:51:20.632Z,4.53
2018-06-01T17:53:49.185Z,3.60
2018-06-01T17:56:17.745Z,3.93
2018-06-01T17:58:46.298Z,4.03
2018-06-01T18:01:14.888Z,4.10
2018-06-01T18:03:43.475Z,4.53
2018-06-01T18:06:12.034Z,4.07
2018-06-01T18:08:40.587Z,3.93
2018-06-01T18:11:09.162Z,4.50
2018-06-01T18:13:37.723Z,7.40
2018-06-01T18:16:06.287Z,6.47
2018-06-01T18:18:34.832Z,4.30
2018-06-01T18:21:03.405Z,5.17
2018-06-01T18:23:31.963Z,4.43
2018-06-01T18:26:00.534Z,4.80
2018-06-01T18:28:29.118Z,4.47
2018-06-01T18:30:57.701Z,4.57
2018-06-01T18:33:26.279Z,4.83
2018-06-01T18:35:54.848Z,4.90
2018-06-01T18:38:23.440Z,6.37
2018-06-01T18:40:58.059Z,5.43
2018-06-01T18:43:26.616Z,6.37
2018-06-01T18:45:55.175Z,7.57
2018-06-01T18:48:24.404Z,7.20
2018-06-01T18:50:52.611Z,6.43
2018-06-01T18:53:21.172Z,7.10
2018-06-01T18:55:49.755Z,6.60
2018-06-01T18:58:18.302Z,7.63
2018-06-01T19:00:46.876Z,8.27
2018-06-01T19:03:15.453Z,7.90
2018-06-01T19:05:44.215Z,8.03
2018-06-01T19:08:12.879Z,7.70
2018-06-01T19:10:41.440Z,7.77
2018-06-01T19:13:10.060Z,9.40
2018-06-01T19:15:38.619Z,9.00
2018-06-01T19:18:07.196Z,10.30
2018-06-01T19:20:35.817Z,12.23
2018-06-01T19:23:04.380Z,13.13
2018-06-01T19:25:32.944Z,17.57
2018-06-01T19:28:01.514Z,11.43
2018-06-01T19:30:30.169Z,18.00
2018-06-01T19:32:58.733Z,8.20
2018-06-01T19:35:27.339Z,10.80
2018-06-01T19:37:55.905Z,11.00
2018-06-01T19:40:24.450Z,7.70
2018-06-01T19:42:53.014Z,8.60
2018-06-01T19:45:21.579Z,10.23
2018-06-01T19:47:50.211Z,11.67
2018-06-01T19:50:18.772Z,13.33
2018-06-01T19:52:47.340Z,9.00
2018-06-01T19:55:15.907Z,11.03
2018-06-01T19:57:46.096Z,11.37
2018-06-01T20:00:14.707Z,9.90
2018-06-01T20:02:44.076Z,8.50
2018-06-01T20:05:12.635Z,10.10
2018-06-01T20:07:41.193Z,9.27
2018-06-01T20:10:09.800Z,20.00
2018-06-01T20:12:38.351Z,17.77
2018-06-01T20:15:06.916Z,21.37
2018-06-01T20:17:35.480Z,18.67
2018-06-01T20:20:04.163Z,18.70
2018-06-01T20:22:32.744Z,16.80
2018-06-01T20:25:01.342Z,11.30
2018-06-01T20:27:29.973Z,12.60
2018-06-01T20:29:58.539Z,10.80
2018-06-01T20:32:27.141Z,9.27
2018-06-01T20:34:55.699Z,9.50
2018-06-01T20:37:24.251Z,8.97
2018-06-01T20:39:52.806Z,8.73
2018-06-01T20:42:21.420Z,7.70
2018-06-01T20:44:49.972Z,6.80
2018-06-01T20:47:18.539Z,7.07
2018-06-01T20:49:47.091Z,6.63
2018-06-01T20:52:15.657Z,6.47
2018-06-01T20:54:44.203Z,7.30
2018-06-01T20:57:12.778Z,10.27
2018-06-01T20:59:41.994Z,7.17
2018-06-01T21:02:10.561Z,6.50
2018-06-01T21:04:39.114Z,5.90
2018-06-01T21:07:08.588Z,6.00
2018-06-01T21:09:37.185Z,5.70
2018-06-01T21:12:05.900Z,5.93
2018-06-01T21:14:34.456Z,5.73
2018-06-01T21:17:03.022Z,6.00
2018-06-01T21:19:31.588Z,5.47
2018-06-01T21:22:01.067Z,6.80
2018-06-01T21:24:29.623Z,8.87
2018-06-01T21:26:58.192Z,8.33
2018-06-01T21:29:26.787Z,9.50
2018-06-01T21:31:55.336Z,6.57
2018-06-01T21:34:23.891Z,6.27
2018-06-01T21:36:52.456Z,5.30
2018-06-01T21:39:21.020Z,5.73
2018-06-01T21:41:49.657Z,6.30
2018-06-01T21:44:18.347Z,5.90
2018-06-01T21:46:46.967Z,6.63
2018-06-01T21:49:15.652Z,5.93
2018-06-01T21:51:44.218Z,7.90
2018-06-01T21:54:12.787Z,8.27
2018-06-01T21:56:41.337Z,7.27
2018-06-01T21:59:09.938Z,7.20
2018-06-01T22:01:38.545Z,7.00
2018-06-01T22:04:07.149Z,7.43
2018-06-01T22:06:35.712Z,8.57
2018-06-01T22:09:03.351Z,7.13
2018-06-01T22:11:32.719Z,7.20
2018-06-01T22:14:01.278Z,6.97
2018-06-01T22:16:29.831Z,7.00
2018-06-01T22:18:58.386Z,6.50
2018-06-01T22:21:26.971Z,7.40
2018-06-01T22:23:55.215Z,8.20
2018-06-01T22:26:23.780Z,6.60
2018-06-01T22:28:52.357Z,7.30
2018-06-01T22:31:20.912Z,7.23
2018-06-01T22:33:49.467Z,6.47
2018-06-01T22:36:18.220Z,6.70
2018-06-01T22:38:46.772Z,7.00
2018-06-01T22:41:15.337Z,7.20
2018-06-01T22:43:43.901Z,7.07
2018-06-01T22:46:12.464Z,7.97
2018-06-01T22:48:41.012Z,7.47
2018-06-01T22:51:09.575Z,7.90
2018-06-01T22:53:38.180Z,8.07
2018-06-01T22:56:06.739Z,8.23
2018-06-01T22:58:35.341Z,6.77
2018-06-01T23:01:04.092Z,7.50
2018-06-01T23:03:32.680Z,6.37
2018-06-01T23:06:01.244Z,6.00
2018-06-01T23:08:29.845Z,6.30
2018-06-01T23:10:58.397Z,4.87
2018-06-01T23:13:26.948Z,4.70
2018-06-01T23:15:55.505Z,4.90
2018-06-01T23:18:24.109Z,4.90
2018-06-01T23:20:52.668Z,4.90
2018-06-01T23:23:21.220Z,4.90
2018-06-01T23:25:49.780Z,4.80
2018-06-01T23:28:18.340Z,4.87
2018-06-01T23:30:46.892Z,4.87
2018-06-01T23:33:15.446Z,5.57
2018-06-01T23:35:44.037Z,4.93
2018-06-01T23:38:12.604Z,4.97
2018-06-01T23:40:41.163Z,5.70
2018-06-01T23:43:09.714Z,5.20
2018-06-01T23:45:38.279Z,5.00
2018-06-01T23:48:06.837Z,5.37
2018-06-01T23:50:35.455Z,5.03
2018-06-01T23:53:04.011Z,5.30
2018-06-01T23:55:32.564Z,4.77
2018-06-01T23:58:01.151Z,5.47
